TAF and METAR

Could not understand the following METAR

EGDR 191950Z AUTO 32006KT 9999 // NCD 09/07 Q1006
No TAF available for Culdrose (Navy)
Culdrose (Navy) in United Kingdom of Great Britain & Northern Ireland at 82m

Latest 5 airports